Time;durP1;ratioP1;P1;durP2;ratioP2;P2;SDS_P1;SDS_P2;PMS_P1;PMS_P2;Temp;Humidity;BMP_temperature;BMP_pressure;BME280_temperature;BME280_humidity;BME280_pressure;Samples;Min_cycle;Max_cycle;Signal;HPM_P1;HPM_P2
2022/06/28 00:19:01;;;;;;;35.15;6.03;;;;;;;21.60;100.00;94448.97;5185978;22;20057;-87
2022/06/28 00:21:26;;;;;;;30.58;5.88;;;;;;;21.61;100.00;94445.19;5000050;28;20030;-87
2022/06/28 00:23:51;;;;;;;28.27;6.07;;;;;;;21.68;100.00;94442.00;5016808;28;20080;-87
2022/06/28 00:26:17;;;;;;;37.42;6.25;;;;;;;21.89;100.00;94446.41;4964492;28;20026;-87
2022/06/28 00:28:43;;;;;;;41.58;6.28;;;;;;;22.19;100.00;94456.75;4964313;28;20022;-87
2022/06/28 00:31:08;;;;;;;40.35;6.28;;;;;;;21.95;100.00;94444.25;4980416;28;20022;-87
2022/06/28 00:33:34;;;;;;;37.78;5.60;;;;;;;21.78;100.00;94448.75;4984350;28;20026;-87
2022/06/28 00:35:59;;;;;;;37.05;6.28;;;;;;;21.64;100.00;94448.31;4999698;28;20022;-87
2022/06/28 00:38:25;;;;;;;34.10;5.93;;;;;;;21.82;100.00;94448.84;4980694;28;20065;-87
2022/06/28 00:40:52;;;;;;;33.88;5.38;;;;;;;21.84;100.00;94458.09;4997345;28;20026;-87
2022/06/28 00:43:20;;;;;;;26.77;5.55;;;;;;;21.97;100.00;94464.16;4964186;28;20027;-87
2022/06/28 00:45:46;;;;;;;38.33;7.22;;;;;;;21.66;100.00;94470.88;4963945;28;20037;-87
2022/06/28 00:48:13;;;;;;;36.75;5.85;;;;;;;21.73;100.00;94470.31;4981038;28;20026;-87
2022/06/28 00:50:39;;;;;;;31.42;6.05;;;;;;;21.74;100.00;94463.88;4967588;28;20022;-87
2022/06/28 00:53:13;;;;;;;35.03;5.95;;;;;;;21.75;100.00;94463.53;4983852;28;20037;-86
2022/06/28 00:55:39;;;;;;;37.13;5.95;;;;;;;21.75;100.00;94468.88;4983542;28;20369;-87
2022/06/28 00:58:15;;;;;;;34.33;6.10;;;;;;;21.66;100.00;94467.44;4983905;28;20030;-87
2022/06/28 01:00:45;;;;;;;30.63;5.70;;;;;;;21.79;100.00;94479.63;4983591;28;20022;-87
2022/06/28 01:03:13;;;;;;;25.60;5.45;;;;;;;21.84;100.00;94471.41;4967716;28;20354;-87
2022/06/28 01:05:40;;;;;;;34.42;5.25;;;;;;;21.97;100.00;94458.81;4983740;28;20026;-87
2022/06/28 01:08:06;;;;;;;34.50;5.95;;;;;;;21.87;100.00;94469.94;4983758;28;20037;-87
2022/06/28 01:10:32;;;;;;;34.03;5.18;;;;;;;21.81;100.00;94455.31;4983900;28;20420;-87
2022/06/28 01:12:58;;;;;;;40.10;6.43;;;;;;;21.67;100.00;94447.69;4968070;28;20037;-87
2022/06/28 01:15:23;;;;;;;29.83;5.50;;;;;;;21.87;100.00;94441.41;5001210;28;20418;-87
2022/06/28 01:17:49;;;;;;;47.03;6.25;;;;;;;21.74;100.00;94431.88;4983482;28;20036;-87
2022/06/28 01:20:15;;;;;;;30.25;5.35;;;;;;;21.58;100.00;94418.44;4983704;28;20032;-88
2022/06/28 01:22:41;;;;;;;38.28;6.10;;;;;;;21.52;100.00;94407.25;4983568;28;20034;-87
2022/06/28 01:25:16;;;;;;;36.65;5.45;;;;;;;21.50;100.00;94406.03;4967542;28;20124;-88
2022/06/28 01:27:55;;;;;;;25.23;5.43;;;;;;;21.58;100.00;94395.22;4984555;28;20469;-87
2022/06/28 01:30:36;;;;;;;35.53;5.85;;;;;;;21.54;100.00;94398.91;4984519;28;20061;-87
2022/06/28 01:33:03;;;;;;;36.65;5.65;;;;;;;21.61;100.00;94393.78;4967825;28;20054;-87
2022/06/28 01:35:29;;;;;;;47.97;6.25;;;;;;;21.82;100.00;94398.19;5000710;28;20077;-87
2022/06/28 01:37:54;;;;;;;42.60;5.63;;;;;;;21.77;100.00;94399.19;4983237;28;20030;-87
2022/06/28 01:40:20;;;;;;;34.17;6.30;;;;;;;21.70;100.00;94409.69;4983057;28;20494;-87
2022/06/28 01:42:45;;;;;;;35.95;5.75;;;;;;;21.52;100.00;94406.44;5000517;28;20110;-87
2022/06/28 01:45:11;;;;;;;40.22;5.85;;;;;;;21.44;100.00;94405.47;4967274;28;20037;-87
2022/06/28 01:47:44;;;;;;;37.85;6.82;;;;;;;21.46;100.00;94405.91;4982752;28;20351;-88
2022/06/28 01:50:09;;;;;;;48.85;7.93;;;;;;;21.27;100.00;94412.59;4983347;28;20018;-87
2022/06/28 01:52:39;;;;;;;42.47;6.30;;;;;;;21.25;100.00;94425.47;5000345;28;20381;-87
2022/06/28 01:55:05;;;;;;;38.67;6.38;;;;;;;21.67;100.00;94415.69;4967010;28;20026;-87
2022/06/28 01:57:30;;;;;;;30.33;6.13;;;;;;;21.91;100.00;94417.50;4982857;28;20124;-87
2022/06/28 01:59:56;;;;;;;26.55;6.25;;;;;;;21.72;100.00;94415.44;4981366;28;20439;-88
2022/06/28 02:02:21;;;;;;;36.45;5.78;;;;;;;21.55;100.00;94406.56;4982824;28;20032;-87
2022/06/28 02:04:47;;;;;;;32.03;6.00;;;;;;;21.66;100.00;94406.09;4982740;28;20034;-88
2022/06/28 02:07:12;;;;;;;40.65;6.13;;;;;;;21.80;100.00;94411.09;4982754;28;20378;-87
2022/06/28 02:09:37;;;;;;;25.80;5.22;;;;;;;21.65;100.00;94404.53;4966404;28;20029;-87
2022/06/28 02:12:03;;;;;;;41.78;5.63;;;;;;;21.69;100.00;94400.13;4982950;28;20041;-87
2022/06/28 02:14:29;;;;;;;28.42;5.22;;;;;;;21.58;100.00;94389.91;4966703;28;20022;-87
2022/06/28 02:16:56;;;;;;;36.35;5.97;;;;;;;21.55;100.00;94393.25;4982567;28;20362;-87
2022/06/28 02:19:21;;;;;;;32.55;6.50;;;;;;;21.43;100.00;94398.59;4982588;28;20034;-87
2022/06/28 02:21:47;;;;;;;39.55;5.95;;;;;;;21.35;100.00;94402.13;4966811;28;20296;-87
2022/06/28 02:24:13;;;;;;;42.35;6.43;;;;;;;21.11;100.00;94401.84;5000090;28;20034;-87
2022/06/28 02:26:39;;;;;;;42.20;6.43;;;;;;;21.12;100.00;94391.97;4982501;28;20022;-87
2022/06/28 02:29:05;;;;;;;33.00;6.53;;;;;;;20.98;100.00;94392.28;4982010;28;20030;-87
2022/06/28 02:31:31;;;;;;;43.95;6.97;;;;;;;20.77;100.00;94387.81;4982266;28;20026;-87
2022/06/28 02:33:57;;;;;;;31.52;6.28;;;;;;;20.60;100.00;94373.63;4981998;28;20026;-88
2022/06/28 02:41:48;;;;;;;40.92;7.45;;;;;;;20.76;100.00;94367.63;4984230;28;20083;-87
2022/06/28 02:44:17;;;;;;;33.08;5.85;;;;;;;20.90;100.00;94362.78;4999436;28;20026;-86
2022/06/28 02:46:44;;;;;;;30.55;6.13;;;;;;;21.24;100.00;94362.66;4982178;28;20022;-86
2022/06/28 02:49:09;;;;;;;29.85;6.05;;;;;;;21.44;100.00;94362.84;4999233;28;20383;-87
2022/06/28 02:51:35;;;;;;;26.40;5.65;;;;;;;21.59;100.00;94372.00;4981975;28;20088;-87
2022/06/28 02:54:00;;;;;;;33.67;5.45;;;;;;;21.47;100.00;94368.28;4966045;28;20022;-87
2022/06/28 02:56:25;;;;;;;39.55;6.32;;;;;;;21.53;100.00;94378.69;4981814;28;20026;-87
2022/06/28 02:58:51;;;;;;;38.30;6.30;;;;;;;21.85;100.00;94386.84;4981665;28;20033;-86
2022/06/28 03:01:17;;;;;;;41.83;5.65;;;;;;;22.07;100.00;94387.44;4998767;28;20022;-86
2022/06/28 03:03:42;;;;;;;40.08;5.93;;;;;;;22.15;100.00;94373.16;4998809;28;20027;-86
2022/06/28 03:06:08;;;;;;;31.70;5.32;;;;;;;21.89;100.00;94363.72;4984261;28;20419;-87
2022/06/28 03:08:33;;;;;;;26.13;5.47;;;;;;;21.82;100.00;94360.84;4989319;28;20099;-87
2022/06/28 03:10:59;;;;;;;32.75;5.90;;;;;;;21.40;100.00;94359.28;5009251;28;20108;-87
2022/06/28 03:13:24;;;;;;;32.50;5.57;;;;;;;21.04;100.00;94354.44;4981526;28;20023;-87
2022/06/28 03:15:50;;;;;;;43.80;5.75;;;;;;;20.99;100.00;94357.34;4989453;28;20108;-86
2022/06/28 03:18:16;;;;;;;36.15;6.32;;;;;;;21.10;100.00;94362.22;4980923;28;20041;-86
2022/06/28 03:20:41;;;;;;;41.45;6.82;;;;;;;21.08;100.00;94354.56;4981057;28;20125;-87
2022/06/28 03:23:07;;;;;;;23.80;5.38;;;;;;;20.86;100.00;94361.88;4981663;28;20080;-87
2022/06/28 03:25:32;;;;;;;30.45;5.22;;;;;;;20.77;100.00;94361.97;4981328;28;20022;-87
2022/06/28 03:27:58;;;;;;;49.35;6.43;;;;;;;20.75;100.00;94358.09;4981281;28;20026;-87
2022/06/28 03:30:26;;;;;;;33.38;6.28;;;;;;;20.76;100.00;94364.97;4980944;28;20022;-87
2022/06/28 03:32:51;;;;;;;27.75;5.90;;;;;;;20.92;100.00;94373.09;4981086;28;20330;-87
2022/06/28 03:35:17;;;;;;;30.45;5.85;;;;;;;20.95;100.00;94369.00;4981089;28;20101;-87
2022/06/28 03:37:44;;;;;;;29.45;5.35;;;;;;;20.90;100.00;94373.44;4965229;28;20053;-87
2022/06/28 03:40:10;;;;;;;29.75;6.22;;;;;;;20.85;100.00;94372.88;4981087;28;20367;-87
2022/06/28 03:42:36;;;;;;;26.13;5.57;;;;;;;20.98;100.00;94369.09;4964778;28;20034;-87
2022/06/28 03:45:02;;;;;;;41.15;6.88;;;;;;;20.77;100.00;94369.94;4964937;28;20036;-87
2022/06/28 03:47:27;;;;;;;39.42;6.72;;;;;;;20.59;100.00;94363.28;4965041;28;20054;-87
2022/06/28 03:49:53;;;;;;;31.05;5.50;;;;;;;20.78;100.00;94370.75;4980796;28;20065;-87
2022/06/28 03:52:18;;;;;;;39.10;5.63;;;;;;;20.85;100.00;94370.22;4980853;28;20034;-87
2022/06/28 03:54:44;;;;;;;40.13;6.25;;;;;;;21.17;100.00;94368.53;4980825;28;20026;-87
2022/06/28 03:57:09;;;;;;;43.42;6.47;;;;;;;20.86;100.00;94367.19;4980998;28;20035;-87
2022/06/28 03:59:36;;;;;;;27.85;5.68;;;;;;;21.05;100.00;94382.63;4964584;28;20031;-87
2022/06/28 04:02:04;;;;;;;52.83;6.85;;;;;;;21.01;100.00;94365.78;4981154;28;20032;-87
2022/06/28 04:04:30;;;;;;;28.80;5.85;;;;;;;20.88;100.00;94351.69;4980677;28;20114;-87
2022/06/28 04:06:55;;;;;;;35.00;5.10;;;;;;;20.93;100.00;94357.91;4980604;28;20133;-87
2022/06/28 04:09:21;;;;;;;33.80;6.50;;;;;;;21.03;100.00;94378.75;4980423;28;20022;-87
2022/06/28 04:11:46;;;;;;;35.00;5.90;;;;;;;21.22;100.00;94372.84;4980565;28;20037;-87
2022/06/28 04:14:13;;;;;;;40.38;6.18;;;;;;;21.39;100.00;94377.16;4964599;28;20030;-87
2022/06/28 04:16:40;;;;;;;28.67;5.80;;;;;;;21.52;100.00;94385.91;4980737;28;20022;-87
2022/06/28 04:19:06;;;;;;;49.78;7.03;;;;;;;21.33;100.00;94386.50;4980251;28;20445;-86
2022/06/28 04:21:32;;;;;;;53.88;7.57;;;;;;;21.55;100.00;94385.25;4964062;28;20030;-86
2022/06/28 04:23:57;;;;;;;39.13;5.82;;;;;;;21.30;100.00;94385.28;4979379;28;20034;-86
2022/06/28 04:26:22;;;;;;;36.05;5.63;;;;;;;21.33;100.00;94384.59;4980288;28;20026;-86
2022/06/28 04:28:48;;;;;;;42.50;6.32;;;;;;;21.58;100.00;94389.91;4979907;28;20032;-86
2022/06/28 04:31:15;;;;;;;34.17;6.47;;;;;;;22.09;100.00;94387.88;4980270;28;20034;-86
2022/06/28 04:33:41;;;;;;;28.20;5.65;;;;;;;22.19;100.00;94400.72;4980220;28;20431;-86
2022/06/28 04:36:06;;;;;;;36.38;5.57;;;;;;;22.34;100.00;94415.22;4980223;28;20045;-86
2022/06/28 04:38:32;;;;;;;36.40;6.75;;;;;;;21.95;100.00;94405.03;4979834;28;20034;-86
2022/06/28 04:40:58;;;;;;;28.15;5.70;;;;;;;21.75;100.00;94377.44;4963888;28;20034;-86
2022/06/28 04:43:23;;;;;;;36.20;6.40;;;;;;;22.13;100.00;94376.19;4979794;28;20089;-86
2022/06/28 04:45:49;;;;;;;35.17;6.13;;;;;;;22.39;100.00;94377.63;4997117;28;20033;-86
2022/06/28 04:48:14;;;;;;;43.40;5.20;;;;;;;22.56;100.00;94381.09;4979815;28;20113;-86
2022/06/28 04:50:39;;;;;;;20.55;4.55;;;;;;;22.61;100.00;94380.84;4979707;28;20038;-86
2022/06/28 04:53:05;;;;;;;51.55;6.35;;;;;;;22.54;100.00;94378.00;4997123;28;20034;-87
2022/06/28 04:55:31;;;;;;;28.10;5.95;;;;;;;22.14;100.00;94372.41;4986547;28;20060;-88
2022/06/28 04:57:57;;;;;;;34.95;6.43;;;;;;;22.41;100.00;94393.25;4999359;28;20042;-88
2022/06/28 05:00:23;;;;;;;29.38;5.80;;;;;;;22.56;100.00;94395.22;5016787;28;20037;-88
2022/06/28 05:02:48;;;;;;;47.53;7.05;;;;;;;22.09;100.00;94393.22;5017226;28;20033;-88
2022/06/28 05:05:14;;;;;;;33.10;5.78;;;;;;;21.97;100.00;94378.78;4999361;28;20034;-87
2022/06/28 05:07:47;;;;;;;33.13;5.75;;;;;;;21.89;100.00;94367.16;4998370;28;20825;-88
2022/06/28 05:10:13;;;;;;;30.08;5.45;;;;;;;22.36;100.00;94378.28;5015589;28;20026;-89
2022/06/28 05:12:39;;;;;;;32.92;6.15;;;;;;;22.53;100.00;94377.22;4999319;28;20083;-88
2022/06/28 05:15:04;;;;;;;27.58;6.03;;;;;;;22.73;100.00;94374.63;4999493;28;20040;-87
2022/06/28 05:17:30;;;;;;;35.95;5.75;;;;;;;22.67;100.00;94379.47;5015758;28;20191;-87
2022/06/28 05:19:56;;;;;;;34.90;5.60;;;;;;;23.14;100.00;94393.91;5015487;28;20049;-87
2022/06/28 05:22:21;;;;;;;31.67;6.07;;;;;;;23.06;100.00;94397.53;5016705;28;20084;-87
2022/06/28 05:24:47;;;;;;;25.45;4.90;;;;;;;23.61;100.00;94402.22;4999426;28;20037;-87
2022/06/28 05:27:12;;;;;;;33.25;6.50;;;;;;;23.17;100.00;94408.47;5016984;28;20042;-87
2022/06/28 05:29:38;;;;;;;26.48;5.20;;;;;;;23.39;100.00;94409.00;5016563;28;20113;-87
2022/06/28 05:32:04;;;;;;;25.60;5.03;;;;;;;23.88;100.00;94406.94;5016913;28;20048;-88
2022/06/28 05:34:29;;;;;;;35.80;5.70;;;;;;;23.81;100.00;94411.00;5000565;28;20034;-86
2022/06/28 05:36:55;;;;;;;23.77;5.13;;;;;;;24.60;100.00;94396.81;5020345;28;20057;-88
2022/06/28 05:39:21;;;;;;;25.40;5.32;;;;;;;24.66;100.00;94393.47;5002462;28;20033;-88
2022/06/28 05:41:46;;;;;;;31.67;5.63;;;;;;;24.67;100.00;94402.28;5018799;28;20065;-88
2022/06/28 05:44:13;;;;;;;31.85;5.50;;;;;;;24.22;100.00;94410.69;5002696;28;20117;-87
2022/06/28 05:46:39;;;;;;;28.00;5.10;;;;;;;24.81;100.00;94418.63;5018950;28;20112;-87
2022/06/28 05:49:06;;;;;;;19.05;4.70;;;;;;;24.80;100.00;94409.06;4986517;28;20033;-87
2022/06/28 05:51:31;;;;;;;30.48;5.47;;;;;;;23.57;100.00;94398.66;5018905;28;20040;-87
2022/06/28 05:53:57;;;;;;;20.98;5.22;;;;;;;24.46;100.00;94424.13;5019123;28;20045;-88
2022/06/28 05:56:22;;;;;;;38.72;5.90;;;;;;;23.98;100.00;94433.16;5018568;28;20080;-87
2022/06/28 05:58:48;;;;;;;32.30;6.22;;;;;;;24.54;100.00;94449.91;5018575;28;20393;-87
2022/06/28 06:01:13;;;;;;;36.55;6.45;;;;;;;24.22;100.00;94448.16;5002549;28;20330;-87
2022/06/28 06:03:39;;;;;;;26.83;5.55;;;;;;;24.24;100.00;94455.81;5018672;28;20039;-88
2022/06/28 06:06:04;;;;;;;31.88;5.25;;;;;;;24.13;100.00;94461.75;5019814;28;20029;-87
2022/06/28 06:08:30;;;;;;;32.00;6.97;;;;;;;23.06;100.00;94456.31;4986132;28;20026;-87
2022/06/28 06:10:55;;;;;;;25.35;5.30;;;;;;;23.25;100.00;94462.88;5019900;28;20096;-87
2022/06/28 06:13:20;;;;;;;34.45;5.45;;;;;;;23.71;100.00;94470.41;5002416;28;20040;-87
2022/06/28 06:15:46;;;;;;;26.95;5.13;;;;;;;24.23;100.00;94468.44;5018466;28;20041;-88
2022/06/28 06:18:11;;;;;;;38.30;6.40;;;;;;;23.25;100.00;94474.34;5019646;28;20111;-87
2022/06/28 06:20:37;;;;;;;35.55;5.88;;;;;;;23.80;100.00;94465.63;5019334;28;20493;-87
2022/06/28 06:23:02;;;;;;;43.38;6.18;;;;;;;23.14;100.00;94460.72;5019323;28;20119;-87
2022/06/28 06:25:28;;;;;;;37.20;6.53;;;;;;;23.67;100.00;94472.22;5018493;28;20423;-88
2022/06/28 06:27:53;;;;;;;34.58;5.80;;;;;;;23.92;100.00;94458.63;5002000;28;20033;-88
2022/06/28 06:30:19;;;;;;;27.73;5.28;;;;;;;23.89;100.00;94453.97;5001574;28;20037;-88
2022/06/28 06:32:44;;;;;;;29.48;6.10;;;;;;;24.40;100.00;94451.19;5019231;28;20324;-87
2022/06/28 06:35:10;;;;;;;33.92;7.20;;;;;;;24.53;100.00;94448.34;5018367;28;20042;-87
2022/06/28 06:37:36;;;;;;;32.45;6.15;;;;;;;24.50;100.00;94438.34;5018256;28;20044;-87
2022/06/28 06:40:02;;;;;;;24.63;5.63;;;;;;;24.46;100.00;94440.19;5018880;28;20045;-88
2022/06/28 06:42:27;;;;;;;35.42;5.88;;;;;;;23.86;100.00;94456.22;5001145;28;20063;-88
2022/06/28 06:44:53;;;;;;;34.92;6.13;;;;;;;23.66;100.00;94454.63;5015263;28;20042;-87
2022/06/28 06:47:37;;;;;;;33.33;6.53;;;;;;;23.11;100.00;94452.63;5001045;28;20042;-87
2022/06/28 06:50:08;;;;;;;34.15;5.88;;;;;;;23.14;100.00;94452.69;4985217;28;20030;-87
2022/06/28 06:52:34;;;;;;;29.65;5.85;;;;;;;23.02;100.00;94456.22;5002052;28;20449;-87
2022/06/28 06:54:59;;;;;;;30.45;6.15;;;;;;;23.64;100.00;94475.59;5018851;28;20030;-87
2022/06/28 06:57:25;;;;;;;30.35;6.22;;;;;;;23.97;100.00;94487.78;5001351;28;20256;-88
2022/06/28 06:59:50;;;;;;;29.35;6.07;;;;;;;23.78;100.00;94485.84;4999560;28;20108;-87
2022/06/28 07:02:15;;;;;;;24.77;5.68;;;;;;;23.76;100.00;94480.06;4999076;28;20506;-87
2022/06/28 07:04:41;;;;;;;41.75;6.68;;;;;;;22.87;100.00;94457.75;4999395;28;20030;-87
2022/06/28 07:07:06;;;;;;;38.17;6.30;;;;;;;22.54;100.00;94445.50;4999016;28;20026;-87
2022/06/28 07:09:32;;;;;;;32.72;6.45;;;;;;;23.37;100.00;94451.31;4981524;28;20019;-88
2022/06/28 07:11:57;;;;;;;28.88;5.05;;;;;;;23.73;100.00;94460.91;4981635;28;20030;-87
2022/06/28 07:14:22;;;;;;;35.90;6.90;;;;;;;23.60;100.00;94464.84;4981300;28;20089;-88
2022/06/28 07:16:53;;;;;;;45.63;6.68;;;;;;;23.86;100.00;94474.94;4998788;28;20053;-87
2022/06/28 07:19:18;;;;;;;31.42;6.47;;;;;;;23.12;100.00;94473.63;4998016;28;20109;-87
2022/06/28 07:21:44;;;;;;;35.45;6.93;;;;;;;22.42;100.00;94462.34;4965490;28;20032;-86
2022/06/28 07:24:10;;;;;;;41.90;6.85;;;;;;;22.26;100.00;94458.84;4981057;28;20031;-87
2022/06/28 07:26:35;;;;;;;31.38;7.30;;;;;;;22.48;100.00;94460.22;4981121;28;20042;-87
2022/06/28 07:29:02;;;;;;;31.20;5.82;;;;;;;23.21;100.00;94472.69;4981156;28;20462;-87
2022/06/28 07:31:30;;;;;;;27.88;5.32;;;;;;;23.67;100.00;94466.88;4981282;28;20419;-87
2022/06/28 07:33:56;;;;;;;40.70;6.68;;;;;;;23.58;100.00;94467.84;4999977;28;20066;-88
2022/06/28 07:36:22;;;;;;;34.42;6.32;;;;;;;23.86;100.00;94469.59;5000483;28;20034;-87
2022/06/28 07:38:52;;;;;;;26.40;5.63;;;;;;;23.99;100.00;94467.56;5017942;28;20338;-87
2022/06/28 07:41:18;;;;;;;30.10;6.63;;;;;;;24.04;100.00;94458.50;5016453;28;20032;-87
2022/06/28 07:43:46;;;;;;;33.15;6.18;;;;;;;23.58;100.00;94470.53;5000261;28;20026;-88
2022/06/28 07:46:12;;;;;;;40.17;6.28;;;;;;;23.58;100.00;94472.41;5018146;28;20033;-87
2022/06/28 07:48:37;;;;;;;35.70;6.22;;;;;;;23.36;100.00;94469.28;5000354;28;20014;-87
2022/06/28 07:53:47;;;;;;;27.05;5.35;;;;;;;23.75;100.00;94457.88;5002859;28;20037;-87
2022/06/28 07:56:14;;;;;;;35.28;7.25;;;;;;;22.72;100.00;94432.63;4984220;28;20342;-86
2022/06/28 07:58:40;;;;;;;33.78;6.93;;;;;;;23.12;100.00;94435.47;5000103;28;20037;-86
2022/06/28 08:01:15;;;;;;;29.95;5.53;;;;;;;23.44;100.00;94436.22;5017597;28;20038;-87
2022/06/28 08:03:40;;;;;;;27.23;5.97;;;;;;;23.75;100.00;94430.38;5000462;28;20028;-86
2022/06/28 08:06:06;;;;;;;34.33;5.50;;;;;;;23.57;100.00;94418.19;5000114;28;20026;-87
2022/06/28 08:08:31;;;;;;;35.60;7.03;;;;;;;23.66;100.00;94414.50;5000018;28;20501;-88
2022/06/28 08:10:57;;;;;;;37.80;5.82;;;;;;;24.29;100.00;94432.22;4983943;28;20029;-88
2022/06/28 08:13:27;;;;;;;32.95;6.93;;;;;;;24.29;100.00;94445.63;5000562;28;20084;-88
2022/06/28 08:15:53;;;;;;;25.88;5.63;;;;;;;24.69;100.00;94442.88;4984225;28;20120;-86
2022/06/28 08:18:19;;;;;;;31.60;6.00;;;;;;;23.53;100.00;94440.59;5016257;28;20073;-86
2022/06/28 08:20:47;;;;;;;29.23;6.57;;;;;;;23.13;100.00;94429.00;4999553;28;20026;-86
2022/06/28 08:23:13;;;;;;;36.25;6.97;;;;;;;23.21;100.00;94440.63;5017185;28;20485;-87
2022/06/28 08:25:42;;;;;;;32.03;7.13;;;;;;;23.67;100.00;94453.50;4991356;28;20022;-86
2022/06/28 08:28:11;;;;;;;36.30;6.32;;;;;;;24.32;100.00;94448.72;4999806;28;20049;-86
2022/06/28 08:30:37;;;;;;;32.55;5.82;;;;;;;24.43;100.00;94442.44;4999913;28;20339;-86
2022/06/28 08:33:05;;;;;;;20.63;5.60;;;;;;;24.46;100.00;94442.84;4999675;28;20030;-85
2022/06/28 08:35:37;;;;;;;37.15;6.40;;;;;;;24.09;100.00;94422.69;4980507;28;20096;-86
2022/06/28 08:38:06;;;;;;;27.90;5.93;;;;;;;24.18;100.00;94415.22;4997090;28;20037;-87
2022/06/28 08:40:33;;;;;;;27.17;6.20;;;;;;;24.36;100.00;94423.56;4980569;28;20034;-87
2022/06/28 08:42:59;;;;;;;34.10;6.50;;;;;;;24.17;100.00;94412.88;4980025;28;20450;-87
2022/06/28 08:45:27;;;;;;;29.10;6.00;;;;;;;23.89;100.00;94403.13;4980112;28;20073;-87
2022/06/28 08:47:55;;;;;;;27.02;6.25;;;;;;;24.16;100.00;94393.34;4980636;28;20045;-88
2022/06/28 08:50:32;;;;;;;22.52;4.78;;;;;;;24.37;100.00;94411.72;4979723;28;20422;-88
2022/06/28 08:53:00;;;;;;;33.88;6.47;;;;;;;24.34;100.00;94427.75;4980103;28;20463;-89
2022/06/28 08:55:35;;;;;;;31.48;6.10;;;;;;;24.77;100.00;94411.66;4963651;28;20048;-89
2022/06/28 08:58:02;;;;;;;31.73;6.57;;;;;;;25.04;100.00;94380.34;4965119;28;20053;-87
2022/06/28 09:00:28;;;;;;;39.65;6.57;;;;;;;25.38;100.00;94382.31;4979643;28;20026;-88
2022/06/28 09:02:54;;;;;;;25.65;5.72;;;;;;;25.79;100.00;94374.47;4963976;28;20038;-87
2022/06/28 09:05:24;;;;;;;37.78;6.38;;;;;;;25.74;100.00;94369.44;4979794;28;20034;-88
2022/06/28 09:07:50;;;;;;;39.72;6.50;;;;;;;25.32;100.00;94376.53;4980138;28;20035;-88
2022/06/28 09:10:19;;;;;;;31.65;5.80;;;;;;;26.24;100.00;94379.19;4985469;28;20187;-88
2022/06/28 09:12:54;;;;;;;29.77;5.72;;;;;;;26.44;100.00;94379.03;5003731;28;20550;-88
2022/06/28 09:15:22;;;;;;;31.80;6.45;;;;;;;26.48;100.00;94383.28;4988289;28;20026;-85
2022/06/28 09:17:52;;;;;;;38.08;7.65;;;;;;;26.56;100.00;94375.28;4986785;28;20030;-86
2022/06/28 09:20:18;;;;;;;34.78;6.07;;;;;;;26.17;100.00;94384.47;5002661;28;20153;-86
2022/06/28 09:22:47;;;;;;;25.02;5.88;;;;;;;27.21;100.00;94387.34;4986845;28;20018;-88
2022/06/28 09:25:24;;;;;;;25.70;5.25;;;;;;;28.08;100.00;94373.56;4986074;28;20021;-89
2022/06/28 09:27:55;;;;;;;29.65;5.45;;;;;;;28.57;100.00;94373.31;4978875;28;20064;-87
2022/06/28 09:30:21;;;;;;;26.10;5.78;;;;;;;28.68;100.00;94371.41;5003522;28;20061;-89
2022/06/28 09:32:46;;;;;;;36.35;6.40;;;;;;;28.08;100.00;94385.09;4987110;28;20041;-89
2022/06/28 09:35:12;;;;;;;33.92;6.07;;;;;;;28.02;100.00;94388.53;5003366;28;20030;-92
2022/06/28 09:37:52;;;;;;;31.20;6.80;;;;;;;28.20;100.00;94396.72;4983113;28;20037;-89
2022/06/28 09:40:24;;;;;;;28.17;5.50;;;;;;;28.56;100.00;94410.28;5016642;28;20033;-92
2022/06/28 09:43:20;;;;;;;39.72;7.22;;;;;;;26.94;100.00;94410.97;4988076;28;20080;-88
2022/06/28 09:45:54;;;;;;;38.03;6.80;;;;;;;25.80;100.00;94426.97;5004291;28;20420;-91
2022/06/28 09:48:19;;;;;;;;;;;;;;;25.63;100.00;94422.94;5020710;28;20030;-90
2022/06/28 09:50:46;;;;;;;38.85;6.57;;;;;;;26.58;100.00;94438.25;4986135;28;20223;-87
2022/06/28 09:53:15;;;;;;;36.97;7.15;;;;;;;26.46;100.00;94441.97;4986165;28;20041;-90
2022/06/28 09:55:45;;;;;;;36.70;6.28;;;;;;;26.62;100.00;94444.44;4986513;28;20026;-90
2022/06/28 09:58:10;;;;;;;37.65;5.68;;;;;;;27.15;100.00;94447.22;5002819;28;20044;-90
2022/06/28 10:00:39;;;;;;;35.13;6.15;;;;;;;27.66;100.00;94459.91;5002108;28;20030;-90
2022/06/28 10:03:05;;;;;;;33.15;5.95;;;;;;;26.18;100.00;94451.28;5002399;28;20101;-91
2022/06/28 10:05:31;;;;;;;25.98;5.82;;;;;;;26.92;100.00;94467.03;4985951;28;20026;-90
2022/06/28 10:07:57;;;;;;;37.95;6.88;;;;;;;25.13;100.00;94469.31;5002166;28;20033;-89
2022/06/28 10:10:24;;;;;;;30.98;6.32;;;;;;;25.95;100.00;94480.84;4986008;28;20025;-91
2022/06/28 10:15:37;;;;;;;29.35;5.80;;;;;;;26.45;100.00;94490.69;5019229;28;20347;-89
2022/06/28 10:18:15;;;;;;;27.25;5.60;;;;;;;26.28;100.00;94503.56;4998692;28;20034;-89
2022/06/28 10:20:46;;;;;;;42.25;7.30;;;;;;;26.45;100.00;94539.81;4997370;28;20030;-87
2022/06/28 10:23:27;;;;;;;31.63;5.70;;;;;;;26.28;100.00;94577.94;4999837;28;20026;-88
2022/06/28 10:26:14;;;;;;;40.15;6.68;;;;;;;26.74;100.00;94618.06;4999492;28;20034;-90
2022/06/28 10:28:51;;;;;;;35.00;6.20;;;;;;;25.41;100.00;94631.03;4999471;28;20033;-87
2022/06/28 10:31:25;;;;;;;42.28;6.47;;;;;;;25.62;100.00;94621.81;5015995;28;20037;-90
2022/06/28 10:33:57;;;;;;;44.38;7.13;;;;;;;25.52;100.00;94618.59;5001557;28;20033;-91
2022/06/28 10:36:31;;;;;;;42.15;6.53;;;;;;;25.75;100.00;94582.94;5004461;28;20038;-91
2022/06/28 10:39:08;;;;;;;39.33;6.65;;;;;;;25.72;100.00;94574.81;4989765;28;20077;-88
2022/06/28 10:41:40;;;;;;;32.60;6.53;;;;;;;25.60;100.00;94575.78;5024339;28;20038;-91
2022/06/28 10:44:16;;;;;;;38.80;7.25;;;;;;;25.88;100.00;94582.75;5007303;28;20038;-90
2022/06/28 10:46:49;;;;;;;36.70;5.85;;;;;;;26.02;100.00;94599.06;5007220;28;20385;-92
2022/06/28 10:49:14;;;;;;;30.25;6.60;;;;;;;26.27;100.00;94590.63;5007138;28;20097;-89
2022/06/28 10:52:07;;;;;;;27.42;5.85;;;;;;;26.28;100.00;94594.84;4988697;28;20064;-90
2022/06/28 10:54:35;;;;;;;27.27;5.18;;;;;;;26.47;98.73;94595.84;4996939;28;20076;-91
2022/06/28 10:57:00;;;;;;;35.20;5.80;;;;;;;26.42;100.00;94604.25;5005776;28;20033;-88
2022/06/28 10:59:37;;;;;;;37.63;6.53;;;;;;;25.66;91.21;94593.91;5003971;28;20481;-87
2022/06/28 11:02:03;;;;;;;45.75;6.53;;;;;;;25.58;94.64;94586.88;4984881;28;20117;-89
2022/06/28 11:04:30;;;;;;;39.17;6.00;;;;;;;25.26;94.86;94579.03;4999295;28;20042;-87
2022/06/28 11:06:57;;;;;;;45.80;6.55;;;;;;;25.57;100.00;94590.69;4965731;28;20395;-89
2022/06/28 11:09:45;;;;;;;36.65;6.30;;;;;;;24.55;100.00;94590.72;4998973;28;20037;-88
2022/06/28 11:12:38;;;;;;;33.85;5.90;;;;;;;24.92;100.00;94586.88;4998642;28;20431;-87
2022/06/28 11:15:32;;;;;;;23.63;4.80;;;;;;;24.88;91.98;94575.28;4998911;28;20124;-87
2022/06/28 11:17:59;;;;;;;27.73;5.32;;;;;;;24.51;100.00;94604.03;4998451;28;20038;-87
2022/06/28 11:20:25;;;;;;;43.55;5.20;;;;;;;24.53;100.00;94612.47;5004479;28;20044;-86
2022/06/28 11:22:52;;;;;;;29.77;4.60;;;;;;;24.37;93.73;94619.78;4999400;28;20160;-87
2022/06/28 11:25:22;;;;;;;30.88;4.90;;;;;;;24.14;100.00;94623.13;5008457;28;20315;-88
2022/06/28 11:27:55;;;;;;;36.55;4.85;;;;;;;24.10;100.00;94617.69;5000671;28;20037;-85
2022/06/28 11:30:27;;;;;;;37.75;4.78;;;;;;;23.87;97.68;94622.84;5000636;28;20040;-87
2022/06/28 11:32:59;;;;;;;24.40;4.60;;;;;;;23.66;100.00;94639.16;5000070;28;20084;-87
2022/06/28 11:35:33;;;;;;;24.40;4.03;;;;;;;23.29;100.00;94648.97;5001550;28;20065;-89
2022/06/28 11:38:02;;;;;;;22.15;4.07;;;;;;;23.24;100.00;94632.38;4981548;28;20132;-86
2022/06/28 11:40:39;;;;;;;34.15;4.55;;;;;;;23.32;99.07;94620.78;5016492;28;20042;-87
2022/06/28 11:43:08;;;;;;;23.15;4.50;;;;;;;22.90;100.00;94616.59;5000208;28;20343;-86
2022/06/28 11:45:39;;;;;;;31.58;4.28;;;;;;;23.21;100.00;94601.75;5016708;28;20037;-88
2022/06/28 11:48:39;;;;;;;31.25;4.00;;;;;;;22.95;100.00;94594.97;5000234;28;20446;-87